Time;durP1;ratioP1;P1;durP2;ratioP2;P2;SDS_P1;SDS_P2;PMS_P1;PMS_P2;Temp;Humidity;BMP_temperature;BMP_pressure;BME280_temperature;BME280_humidity;BME280_pressure;Samples;Min_cycle;Max_cycle;Signal;HPM_P1;HPM_P2
2022/04/24 00:01:44;;;;;;;2.90;2.70;;;9.20;99.90;;;;;;5017993;28;20276;-86
2022/04/24 00:04:09;;;;;;;6.77;2.97;;;9.10;99.90;;;;;;5035168;28;20230;-84
2022/04/24 00:06:35;;;;;;;4.30;3.43;;;9.10;99.90;;;;;;5035660;28;20687;-86
2022/04/24 00:09:01;;;;;;;3.90;2.87;;;9.00;99.90;;;;;;5051752;28;20273;-85
2022/04/24 00:11:27;;;;;;;3.60;2.10;;;9.00;99.90;;;;;;5027102;28;20190;-86
2022/04/24 00:13:53;;;;;;;6.70;2.73;;;9.10;99.90;;;;;;5035479;28;20380;-85
2022/04/24 00:16:18;;;;;;;5.03;2.77;;;9.00;99.90;;;;;;5042040;28;20237;-84
2022/04/24 00:18:44;;;;;;;2.13;1.93;;;9.00;99.90;;;;;;5027165;28;20210;-86
2022/04/24 00:21:10;;;;;;;3.07;2.50;;;9.00;99.90;;;;;;5033858;28;20300;-84
2022/04/24 00:23:36;;;;;;;2.30;2.13;;;8.90;99.90;;;;;;5034839;28;20648;-84
2022/04/24 00:26:01;;;;;;;3.37;2.80;;;8.90;99.90;;;;;;5034474;28;20244;-85
2022/04/24 00:28:27;;;;;;;3.23;2.93;;;8.90;99.90;;;;;;5034552;28;20222;-84
2022/04/24 00:30:53;;;;;;;3.73;3.43;;;8.90;99.90;;;;;;5035264;28;20222;-84
2022/04/24 00:33:19;;;;;;;2.70;2.50;;;8.80;99.90;;;;;;5034148;28;20254;-84
2022/04/24 00:35:45;;;;;;;4.07;3.67;;;8.80;99.90;;;;;;5035854;28;21071;-84
2022/04/24 00:38:11;;;;;;;3.07;2.77;;;8.70;99.90;;;;;;5035883;28;20685;-86
2022/04/24 00:40:36;;;;;;;4.10;2.93;;;8.70;99.90;;;;;;5050455;28;20217;-84
2022/04/24 00:43:02;;;;;;;4.43;2.43;;;8.70;99.90;;;;;;5035390;28;20280;-86
2022/04/24 00:45:28;;;;;;;4.17;3.37;;;8.70;99.90;;;;;;5034173;28;20238;-85
2022/04/24 00:47:56;;;;;;;7.10;3.63;;;8.60;99.90;;;;;;5034234;28;20208;-85
2022/04/24 00:50:22;;;;;;;2.53;2.33;;;8.60;99.90;;;;;;5042966;28;20249;-85
2022/04/24 00:52:48;;;;;;;3.30;2.90;;;8.60;99.90;;;;;;5033579;28;20225;-85
2022/04/24 00:55:15;;;;;;;3.23;2.93;;;8.50;99.90;;;;;;5034836;28;20222;-84
2022/04/24 00:57:41;;;;;;;2.70;2.50;;;8.50;99.90;;;;;;5038852;28;20230;-87
2022/04/24 01:00:08;;;;;;;4.37;3.43;;;8.50;99.90;;;;;;5034873;28;20225;-85
2022/04/24 01:02:34;;;;;;;4.07;3.43;;;8.40;99.90;;;;;;5052621;28;20271;-85
2022/04/24 01:05:00;;;;;;;2.80;2.57;;;8.30;99.90;;;;;;5029850;28;20218;-85
2022/04/24 01:07:26;;;;;;;2.77;2.47;;;8.30;99.90;;;;;;5047238;28;20507;-84
2022/04/24 01:09:52;;;;;;;4.00;2.40;;;8.30;99.90;;;;;;5029583;28;20748;-85
2022/04/24 01:12:17;;;;;;;2.33;2.00;;;8.30;99.90;;;;;;5034212;28;20218;-86
2022/04/24 01:14:43;;;;;;;4.97;3.77;;;8.30;99.90;;;;;;5050586;28;20595;-86
2022/04/24 01:17:09;;;;;;;3.23;2.83;;;8.30;99.90;;;;;;5050038;28;20213;-84
2022/04/24 01:19:35;;;;;;;1.90;1.60;;;8.30;99.90;;;;;;5050471;28;20230;-84
2022/04/24 01:22:00;;;;;;;2.90;1.87;;;8.30;99.90;;;;;;5035306;28;20236;-85
2022/04/24 01:24:28;;;;;;;3.93;2.83;;;8.30;99.90;;;;;;5034198;28;20218;-84
2022/04/24 01:26:54;;;;;;;7.03;3.47;;;8.30;99.90;;;;;;5034261;28;20222;-84
2022/04/24 01:29:21;;;;;;;6.20;3.93;;;8.30;99.90;;;;;;5032000;28;20197;-87
2022/04/24 01:31:50;;;;;;;2.43;2.23;;;8.30;99.90;;;;;;5035925;28;20229;-84
2022/04/24 01:34:17;;;;;;;3.80;2.77;;;8.30;99.90;;;;;;5036489;28;20222;-85
2022/04/24 01:36:43;;;;;;;4.17;3.27;;;8.30;99.90;;;;;;5032570;28;20233;-84
2022/04/24 01:39:10;;;;;;;2.97;2.77;;;8.40;99.90;;;;;;5033609;28;20227;-85
2022/04/24 01:41:35;;;;;;;2.57;2.37;;;8.30;99.90;;;;;;5025678;28;20276;-84
2022/04/24 01:44:01;;;;;;;3.70;2.90;;;8.30;99.90;;;;;;5033608;28;20680;-85
2022/04/24 01:46:27;;;;;;;4.30;3.23;;;8.20;99.90;;;;;;5049563;28;20728;-83
2022/04/24 01:48:53;;;;;;;3.47;3.20;;;8.20;99.90;;;;;;5034897;28;20230;-85
2022/04/24 01:51:19;;;;;;;4.10;3.60;;;8.20;99.90;;;;;;5036650;28;20252;-85
2022/04/24 01:53:45;;;;;;;3.40;3.10;;;8.20;99.90;;;;;;5035655;28;20179;-85
2022/04/24 01:56:12;;;;;;;3.07;2.50;;;8.20;99.90;;;;;;5041163;28;20312;-84
2022/04/24 01:58:39;;;;;;;3.23;2.93;;;8.20;99.90;;;;;;5041298;28;20235;-87
2022/04/24 02:01:06;;;;;;;3.77;3.23;;;8.30;99.90;;;;;;5030475;28;20215;-84
2022/04/24 02:03:33;;;;;;;7.30;2.87;;;8.30;99.90;;;;;;5025027;28;20329;-84
2022/04/24 02:05:59;;;;;;;4.80;3.17;;;8.30;99.90;;;;;;5036168;28;20229;-84
2022/04/24 02:08:25;;;;;;;2.90;2.50;;;8.30;99.90;;;;;;5037589;28;20823;-84
2022/04/24 02:10:51;;;;;;;2.80;2.60;;;8.20;99.90;;;;;;5028221;28;20223;-84
2022/04/24 02:13:17;;;;;;;4.07;3.13;;;8.30;99.90;;;;;;5038759;28;20256;-85
2022/04/24 02:15:43;;;;;;;3.90;2.77;;;8.30;99.90;;;;;;5037147;28;20695;-85
2022/04/24 02:18:09;;;;;;;4.57;3.17;;;8.30;99.90;;;;;;5038358;28;20256;-84
2022/04/24 02:20:35;;;;;;;3.53;3.23;;;8.20;99.90;;;;;;5053558;28;20289;-86
2022/04/24 02:23:01;;;;;;;4.83;3.23;;;8.20;99.90;;;;;;5039586;28;20221;-84
2022/04/24 02:25:27;;;;;;;3.93;3.00;;;8.30;99.90;;;;;;5036359;28;20231;-84
2022/04/24 02:27:55;;;;;;;5.40;3.10;;;8.30;99.90;;;;;;5054467;28;20222;-85
2022/04/24 02:30:22;;;;;;;5.23;2.83;;;8.40;99.90;;;;;;5055131;28;20218;-84
2022/04/24 02:32:48;;;;;;;6.37;4.63;;;8.40;99.90;;;;;;5036609;28;20546;-85
2022/04/24 02:35:14;;;;;;;5.10;3.13;;;8.40;99.90;;;;;;5038428;28;20659;-85
2022/04/24 02:37:40;;;;;;;5.13;2.73;;;8.40;99.90;;;;;;5052555;28;20220;-84
2022/04/24 02:40:09;;;;;;;5.93;2.97;;;8.40;99.90;;;;;;5037667;28;20585;-85
2022/04/24 02:42:39;;;;;;;8.77;3.83;;;8.40;99.90;;;;;;5036737;28;20305;-85
2022/04/24 02:45:06;;;;;;;6.40;3.97;;;8.50;99.90;;;;;;5036703;28;20284;-85
2022/04/24 02:47:32;;;;;;;4.30;2.57;;;8.50;99.90;;;;;;5055099;28;20194;-85
2022/04/24 02:49:57;;;;;;;3.30;2.47;;;8.50;99.90;;;;;;5039412;28;20233;-84
2022/04/24 02:52:23;;;;;;;2.40;1.73;;;8.60;99.90;;;;;;5053735;28;20225;-83
2022/04/24 02:54:49;;;;;;;3.80;2.87;;;8.60;99.90;;;;;;5028319;28;20678;-83
2022/04/24 02:57:15;;;;;;;4.27;3.73;;;8.60;99.90;;;;;;5036681;28;20996;-87
2022/04/24 02:59:45;;;;;;;4.20;3.67;;;8.60;99.90;;;;;;5038647;28;20197;-84
2022/04/24 03:02:14;;;;;;;6.90;3.10;;;8.60;99.90;;;;;;5037336;28;20232;-85
2022/04/24 03:04:39;;;;;;;3.13;2.90;;;8.60;99.90;;;;;;5051165;28;20234;-85
2022/04/24 03:07:06;;;;;;;2.90;2.17;;;8.80;99.90;;;;;;5036680;28;20222;-84
2022/04/24 03:09:32;;;;;;;3.30;2.90;;;8.80;99.90;;;;;;5036021;28;20221;-85
2022/04/24 03:11:58;;;;;;;2.60;2.40;;;9.00;99.90;;;;;;5035702;28;20198;-84
2022/04/24 03:14:24;;;;;;;3.13;2.93;;;9.00;99.90;;;;;;5037204;28;20201;-84
2022/04/24 03:16:49;;;;;;;4.77;3.03;;;9.10;99.90;;;;;;5034412;28;20222;-85
2022/04/24 03:19:15;;;;;;;6.00;3.17;;;9.10;99.90;;;;;;5037363;28;20229;-85
2022/04/24 03:21:41;;;;;;;3.23;2.93;;;9.00;99.90;;;;;;5053393;28;20304;-86
2022/04/24 03:24:06;;;;;;;2.93;2.63;;;8.90;99.90;;;;;;5035752;28;20570;-83
2022/04/24 03:26:32;;;;;;;2.27;1.97;;;9.00;99.90;;;;;;5051603;28;20933;-84
2022/04/24 03:28:58;;;;;;;3.20;2.07;;;9.00;99.90;;;;;;5037293;28;20316;-85
2022/04/24 03:31:24;;;;;;;4.10;1.97;;;9.00;99.90;;;;;;5036137;28;20675;-85
2022/04/24 03:33:52;;;;;;;4.53;2.90;;;8.90;99.90;;;;;;5035363;28;20601;-87
2022/04/24 03:36:18;;;;;;;5.00;3.10;;;8.90;99.90;;;;;;5051812;28;20223;-86
2022/04/24 03:38:44;;;;;;;3.83;2.87;;;8.90;99.90;;;;;;5034015;28;20232;-84
2022/04/24 03:41:11;;;;;;;4.23;2.40;;;8.80;99.90;;;;;;5026952;28;20305;-84
2022/04/24 03:43:37;;;;;;;3.93;3.13;;;8.90;99.90;;;;;;5038687;28;20221;-84
2022/04/24 03:46:05;;;;;;;4.20;2.70;;;8.90;99.90;;;;;;5033887;28;20785;-86
2022/04/24 03:48:31;;;;;;;3.80;3.20;;;8.90;99.90;;;;;;5049816;28;20721;-84
2022/04/24 03:50:57;;;;;;;2.40;1.50;;;8.90;99.90;;;;;;5033673;28;20190;-84
2022/04/24 03:53:22;;;;;;;3.03;2.20;;;8.80;99.90;;;;;;5025267;28;20186;-84
2022/04/24 03:55:48;;;;;;;3.23;2.90;;;8.80;99.90;;;;;;5034870;28;20340;-85
2022/04/24 03:58:14;;;;;;;2.27;1.60;;;8.80;99.90;;;;;;5025341;28;20214;-84
2022/04/24 04:00:39;;;;;;;4.17;3.77;;;8.80;99.90;;;;;;5033509;28;20248;-83
2022/04/24 04:03:05;;;;;;;3.37;2.23;;;8.80;99.90;;;;;;5033467;28;20647;-84
2022/04/24 04:05:31;;;;;;;4.80;2.20;;;8.80;99.90;;;;;;5040517;28;20214;-84
2022/04/24 04:07:57;;;;;;;4.40;2.33;;;8.80;99.90;;;;;;5049441;28;20225;-84
2022/04/24 04:10:22;;;;;;;4.57;2.30;;;8.70;99.90;;;;;;5033875;28;20225;-85
2022/04/24 04:12:51;;;;;;;2.03;1.87;;;8.70;99.90;;;;;;5035311;28;20252;-84
2022/04/24 04:15:17;;;;;;;3.10;2.87;;;8.70;99.90;;;;;;5048578;28;20793;-85
2022/04/24 04:17:44;;;;;;;5.10;3.90;;;8.70;99.90;;;;;;5051068;28;20197;-84
2022/04/24 04:20:11;;;;;;;2.73;2.03;;;8.60;99.90;;;;;;5035061;28;20592;-84
2022/04/24 04:22:55;;;;;;;3.30;2.97;;;8.60;99.90;;;;;;5033737;28;20594;-85
2022/04/24 04:25:25;;;;;;;8.57;3.17;;;8.60;99.90;;;;;;5036000;28;20344;-85
2022/04/24 04:27:54;;;;;;;4.90;2.70;;;8.60;99.90;;;;;;5032520;28;20341;-84
2022/04/24 04:30:20;;;;;;;4.07;2.90;;;8.60;99.90;;;;;;5033653;28;20221;-86
2022/04/24 04:32:46;;;;;;;2.53;1.77;;;8.70;99.90;;;;;;5034431;28;20202;-84
2022/04/24 04:35:12;;;;;;;2.43;1.80;;;8.80;99.90;;;;;;5034106;28;20238;-84
2022/04/24 04:37:42;;;;;;;2.30;2.10;;;8.90;99.90;;;;;;5049964;28;20311;-85
2022/04/24 04:40:10;;;;;;;3.83;2.70;;;8.90;99.90;;;;;;5035835;28;20230;-85
2022/04/24 04:42:36;;;;;;;3.70;2.33;;;9.00;99.90;;;;;;5048715;28;20276;-84
2022/04/24 04:45:03;;;;;;;7.17;2.47;;;9.00;99.90;;;;;;5050539;28;20230;-84
2022/04/24 04:47:29;;;;;;;4.23;2.40;;;9.10;99.90;;;;;;5048875;28;20340;-84
2022/04/24 04:49:55;;;;;;;5.43;2.83;;;9.10;99.90;;;;;;5049304;28;20218;-84
2022/04/24 04:52:22;;;;;;;4.30;2.87;;;9.10;99.90;;;;;;5024298;28;21338;-86
2022/04/24 04:54:48;;;;;;;2.43;2.23;;;9.10;99.90;;;;;;5041770;28;20223;-84
2022/04/24 04:57:14;;;;;;;5.50;2.30;;;9.10;99.90;;;;;;5033571;28;20222;-84
2022/04/24 04:59:40;;;;;;;2.87;2.10;;;9.10;99.90;;;;;;5032893;28;20190;-84
2022/04/24 05:02:06;;;;;;;5.60;3.27;;;9.10;99.90;;;;;;5032405;28;20287;-84
2022/04/24 05:04:31;;;;;;;1.63;1.50;;;9.10;99.90;;;;;;5040633;28;20778;-85
2022/04/24 05:06:57;;;;;;;6.83;3.77;;;9.20;99.90;;;;;;5051604;28;20274;-84
2022/04/24 05:09:24;;;;;;;10.57;2.70;;;9.20;99.90;;;;;;5033116;28;20305;-85
2022/04/24 05:11:50;;;;;;;3.60;2.23;;;9.30;99.90;;;;;;5050509;28;20190;-84
2022/04/24 05:14:16;;;;;;;2.20;1.87;;;9.30;99.90;;;;;;5034039;28;20195;-85
2022/04/24 05:16:42;;;;;;;3.27;2.97;;;9.40;99.90;;;;;;5048464;28;21191;-83
2022/04/24 05:19:08;;;;;;;3.30;3.00;;;9.50;99.90;;;;;;5034353;28;20214;-84
2022/04/24 05:21:34;;;;;;;4.07;2.27;;;9.60;99.90;;;;;;5033739;28;20222;-84
2022/04/24 05:24:00;;;;;;;5.03;3.27;;;9.60;99.90;;;;;;5049953;28;20269;-86
2022/04/24 05:26:26;;;;;;;4.47;2.70;;;9.70;99.90;;;;;;5033248;28;20305;-85
2022/04/24 05:28:52;;;;;;;3.80;3.07;;;9.80;99.90;;;;;;5049714;28;20276;-83
2022/04/24 05:31:19;;;;;;;4.33;2.47;;;10.00;99.90;;;;;;5049795;28;20214;-83
2022/04/24 05:33:44;;;;;;;2.93;2.63;;;10.20;99.90;;;;;;5049683;28;21029;-86
2022/04/24 05:36:10;;;;;;;2.73;2.07;;;10.50;99.90;;;;;;5032756;28;20249;-88
2022/04/24 05:38:36;;;;;;;3.30;1.73;;;11.20;99.90;;;;;;5036129;28;20190;-81
2022/04/24 05:41:03;;;;;;;3.33;2.33;;;11.70;99.90;;;;;;5035411;28;20328;-81
2022/04/24 05:43:29;;;;;;;4.53;3.27;;;12.30;99.90;;;;;;5035599;28;20667;-82
2022/04/24 05:45:55;;;;;;;3.43;2.83;;;12.80;99.90;;;;;;5051803;28;20244;-82
2022/04/24 05:48:22;;;;;;;10.40;2.27;;;12.90;99.90;;;;;;5052975;28;20263;-82
2022/04/24 05:50:48;;;;;;;6.97;2.30;;;12.90;99.90;;;;;;5052387;28;20182;-85
2022/04/24 05:53:14;;;;;;;5.83;2.27;;;13.00;99.90;;;;;;5052395;28;20194;-87
2022/04/24 05:55:40;;;;;;;4.07;2.23;;;13.00;99.90;;;;;;5054233;28;20234;-87
2022/04/24 05:58:06;;;;;;;4.63;3.27;;;13.60;99.90;;;;;;5053626;28;20222;-86
2022/04/24 06:00:32;;;;;;;8.70;3.50;;;13.70;99.90;;;;;;5039393;28;21068;-86
2022/04/24 06:02:59;;;;;;;5.17;3.50;;;13.60;99.90;;;;;;5029139;28;20181;-87
2022/04/24 06:05:25;;;;;;;3.33;2.40;;;14.00;99.90;;;;;;5038544;28;20214;-88
2022/04/24 06:07:51;;;;;;;2.63;1.83;;;14.50;99.90;;;;;;5029240;28;20227;-87
2022/04/24 06:10:17;;;;;;;4.40;2.20;;;13.90;99.90;;;;;;5036817;28;20300;-87
2022/04/24 06:12:56;;;;;;;5.83;3.07;;;13.90;99.90;;;;;;5037905;28;20228;-85
2022/04/24 06:15:24;;;;;;;3.40;1.77;;;13.40;99.90;;;;;;5035658;28;20260;-85
2022/04/24 06:17:52;;;;;;;2.73;1.63;;;13.50;99.90;;;;;;5035058;28;20218;-85
2022/04/24 06:20:19;;;;;;;3.63;2.17;;;13.60;99.90;;;;;;5038916;28;20198;-86
2022/04/24 06:22:50;;;;;;;4.53;1.70;;;13.30;99.90;;;;;;5038140;28;20222;-85
2022/04/24 06:25:17;;;;;;;1.67;1.47;;;13.80;99.90;;;;;;5038833;28;20321;-87
2022/04/24 06:27:43;;;;;;;7.00;2.17;;;14.00;99.90;;;;;;5038159;28;20222;-84
2022/04/24 06:30:11;;;;;;;1.77;1.67;;;13.60;99.90;;;;;;5038673;28;20606;-87
2022/04/24 06:32:41;;;;;;;8.10;1.97;;;13.50;99.90;;;;;;5053832;28;20221;-85
2022/04/24 06:35:09;;;;;;;1.87;1.77;;;13.70;99.90;;;;;;5037023;28;20253;-88
2022/04/24 06:37:37;;;;;;;2.97;1.90;;;13.60;99.90;;;;;;5037000;28;20295;-83
2022/04/24 06:40:04;;;;;;;1.80;1.30;;;13.80;99.90;;;;;;5045323;28;20587;-84
2022/04/24 06:42:30;;;;;;;1.57;1.33;;;13.80;99.90;;;;;;5051461;28;20225;-84
2022/04/24 06:44:57;;;;;;;1.40;1.30;;;13.70;99.90;;;;;;5036929;28;20590;-89
2022/04/24 06:47:22;;;;;;;0.90;0.90;;;13.90;99.90;;;;;;5039698;28;20675;-88
2022/04/24 06:49:48;;;;;;;1.53;1.00;;;13.50;99.90;;;;;;5036502;28;20206;-88
2022/04/24 06:52:14;;;;;;;1.20;1.10;;;14.10;99.90;;;;;;5052571;28;20624;-87
2022/04/24 06:54:39;;;;;;;1.80;1.20;;;13.90;99.90;;;;;;5024780;28;21095;-89
2022/04/24 06:57:05;;;;;;;2.10;1.53;;;14.00;99.90;;;;;;5032968;28;20214;-87
2022/04/24 06:59:31;;;;;;;3.07;2.13;;;14.00;99.90;;;;;;5034596;28;20290;-88
2022/04/24 07:01:57;;;;;;;4.17;1.73;;;13.70;99.90;;;;;;5052386;28;20344;-88
2022/04/24 07:04:22;;;;;;;1.50;1.37;;;13.60;99.90;;;;;;5041514;28;20218;-87
2022/04/24 07:06:48;;;;;;;1.53;1.17;;;13.80;99.90;;;;;;5032808;28;20245;-87
2022/04/24 07:09:14;;;;;;;1.60;1.27;;;14.30;99.90;;;;;;5035559;28;20218;-88
2022/04/24 07:11:41;;;;;;;2.17;1.00;;;14.20;99.90;;;;;;5039788;28;20198;-90
2022/04/24 07:14:06;;;;;;;2.37;1.03;;;13.70;99.90;;;;;;5036349;28;20222;-88
2022/04/24 07:16:35;;;;;;;5.27;1.43;;;14.00;99.90;;;;;;5027805;28;20714;-87
2022/04/24 07:19:01;;;;;;;7.40;1.97;;;13.70;99.90;;;;;;5034932;28;20214;-88
2022/04/24 07:21:27;;;;;;;1.23;1.10;;;13.80;99.90;;;;;;5052117;28;20581;-87
2022/04/24 07:23:52;;;;;;;2.93;0.87;;;13.80;99.90;;;;;;5051779;28;20194;-87
2022/04/24 07:26:18;;;;;;;4.03;1.47;;;14.00;99.90;;;;;;5036582;28;20218;-84
2022/04/24 07:28:44;;;;;;;5.10;1.80;;;14.10;99.90;;;;;;5035098;28;20552;-88
2022/04/24 07:31:13;;;;;;;1.27;0.80;;;14.60;99.90;;;;;;5035233;28;20231;-88
2022/04/24 07:33:39;;;;;;;0.87;0.70;;;14.40;99.90;;;;;;5035521;28;20257;-89
2022/04/24 07:36:05;;;;;;;1.77;1.30;;;14.20;99.90;;;;;;5035379;28;20226;-86
2022/04/24 07:38:30;;;;;;;2.37;1.10;;;13.90;99.90;;;;;;5035481;28;20663;-87
2022/04/24 07:40:56;;;;;;;1.23;0.93;;;14.00;99.90;;;;;;5033589;28;20694;-87
2022/04/24 07:43:22;;;;;;;3.70;1.37;;;14.30;99.90;;;;;;5023701;28;20218;-87
2022/04/24 07:45:48;;;;;;;1.17;1.17;;;14.30;99.90;;;;;;5035078;28;20833;-87
2022/04/24 07:48:15;;;;;;;1.57;1.10;;;14.30;99.90;;;;;;5026455;28;20694;-86
2022/04/24 07:50:46;;;;;;;1.70;0.60;;;14.20;99.90;;;;;;5033958;28;20194;-88
2022/04/24 07:53:12;;;;;;;1.43;0.70;;;14.20;99.90;;;;;;5033752;28;20639;-86
2022/04/24 07:55:43;;;;;;;1.37;1.17;;;14.40;99.90;;;;;;5031222;28;20230;-85
2022/04/24 07:58:08;;;;;;;1.00;0.73;;;14.80;99.90;;;;;;5033406;28;20222;-86
2022/04/24 08:00:34;;;;;;;2.73;0.93;;;14.80;99.90;;;;;;5033724;28;20232;-86
2022/04/24 08:03:03;;;;;;;2.10;1.10;;;15.00;99.90;;;;;;5029010;28;20643;-88
2022/04/24 08:05:34;;;;;;;3.80;1.40;;;15.00;99.90;;;;;;5034317;28;20201;-87
2022/04/24 08:08:05;;;;;;;1.97;1.67;;;14.80;99.90;;;;;;5030914;28;20213;-86
2022/04/24 08:10:42;;;;;;;1.53;1.10;;;14.30;99.90;;;;;;5047714;28;20241;-85
2022/04/24 08:13:09;;;;;;;1.63;1.10;;;14.30;99.90;;;;;;5038591;28;20205;-85
2022/04/24 08:15:36;;;;;;;0.77;0.77;;;14.40;99.90;;;;;;5031252;28;20234;-86
2022/04/24 08:18:02;;;;;;;2.03;1.30;;;14.30;99.90;;;;;;5033850;28;20201;-86
2022/04/24 08:20:29;;;;;;;3.20;1.10;;;14.80;99.90;;;;;;5032344;28;20194;-87
2022/04/24 08:22:57;;;;;;;2.77;1.20;;;14.70;99.90;;;;;;5032007;28;20252;-88
2022/04/24 08:25:26;;;;;;;2.20;1.07;;;14.70;99.90;;;;;;5029741;28;20233;-86
2022/04/24 08:27:53;;;;;;;1.27;1.10;;;14.80;99.90;;;;;;5031891;28;20228;-87
2022/04/24 08:30:21;;;;;;;2.63;1.13;;;15.30;99.90;;;;;;5032840;28;20325;-86
2022/04/24 08:32:47;;;;;;;1.60;1.50;;;14.90;99.90;;;;;;5046184;28;20187;-84
2022/04/24 08:35:16;;;;;;;2.63;1.80;;;15.20;99.90;;;;;;5045836;28;21120;-87
2022/04/24 08:37:42;;;;;;;2.33;1.13;;;15.50;99.90;;;;;;5021346;28;20276;-87
2022/04/24 08:40:10;;;;;;;4.00;1.60;;;15.30;99.90;;;;;;5030611;28;20291;-87
2022/04/24 08:42:36;;;;;;;6.87;1.30;;;14.80;99.90;;;;;;5030015;28;20324;-87
2022/04/24 08:45:04;;;;;;;1.67;1.13;;;14.90;99.90;;;;;;5046447;28;20237;-86
2022/04/24 08:47:30;;;;;;;2.50;1.70;;;14.90;99.90;;;;;;5032895;28;20692;-87
2022/04/24 08:49:58;;;;;;;2.17;1.30;;;15.20;99.90;;;;;;5032417;28;20214;-88
2022/04/24 08:52:25;;;;;;;1.60;1.50;;;15.10;99.90;;;;;;5033375;28;20230;-87
2022/04/24 08:54:52;;;;;;;1.00;0.90;;;14.90;99.90;;;;;;5031610;28;20218;-87
2022/04/24 08:57:19;;;;;;;4.23;1.10;;;14.60;99.90;;;;;;5030798;28;20245;-85
2022/04/24 08:59:45;;;;;;;2.67;1.70;;;14.90;99.90;;;;;;5030170;28;20205;-86
2022/04/24 09:02:11;;;;;;;1.17;1.07;;;14.80;99.90;;;;;;5048196;28;20232;-83
2022/04/24 09:04:39;;;;;;;1.43;1.33;;;14.40;99.90;;;;;;5049472;28;20638;-86
2022/04/24 09:07:08;;;;;;;1.17;0.60;;;14.50;99.90;;;;;;5032258;28;21016;-87
2022/04/24 09:09:49;;;;;;;2.80;1.20;;;14.60;99.90;;;;;;5031411;28;20222;-87
2022/04/24 09:12:26;;;;;;;1.90;1.20;;;14.90;99.90;;;;;;5033285;28;20238;-85
2022/04/24 09:14:54;;;;;;;4.13;0.97;;;14.90;99.90;;;;;;5039255;28;20566;-86
2022/04/24 09:17:22;;;;;;;1.00;0.80;;;14.40;99.90;;;;;;5047419;28;20190;-86
2022/04/24 09:19:48;;;;;;;1.00;0.80;;;14.40;99.90;;;;;;5029864;28;20222;-83
2022/04/24 09:22:14;;;;;;;2.83;1.13;;;14.30;99.90;;;;;;5034688;28;20518;-84
2022/04/24 09:24:50;;;;;;;3.47;1.40;;;14.40;99.90;;;;;;5035793;28;20233;-86
2022/04/24 09:27:30;;;;;;;0.93;0.87;;;14.30;99.90;;;;;;5034587;28;20221;-84
2022/04/24 09:29:59;;;;;;;2.23;1.00;;;14.30;99.90;;;;;;5040192;28;20183;-87
2022/04/24 09:32:27;;;;;;;1.53;1.00;;;14.60;99.90;;;;;;5033440;28;20332;-85
2022/04/24 09:34:53;;;;;;;9.30;1.73;;;14.80;99.90;;;;;;5023619;28;20222;-88
2022/04/24 09:37:20;;;;;;;1.57;0.83;;;14.70;99.90;;;;;;5032260;28;20242;-85
2022/04/24 09:39:47;;;;;;;3.57;1.60;;;14.50;99.90;;;;;;5046193;28;20313;-86
2022/04/24 09:42:14;;;;;;;1.90;0.70;;;14.40;99.90;;;;;;5033789;28;20254;-87
2022/04/24 09:44:51;;;;;;;1.23;0.50;;;14.00;99.90;;;;;;5048302;28;20273;-88
2022/04/24 09:47:22;;;;;;;3.43;1.63;;;14.10;99.90;;;;;;5034168;28;20240;-87
2022/04/24 09:49:50;;;;;;;2.73;1.20;;;13.80;99.90;;;;;;5039749;28;20244;-86
2022/04/24 09:52:25;;;;;;;2.53;1.17;;;13.90;99.90;;;;;;5030505;28;20653;-89
2022/04/24 09:54:53;;;;;;;1.20;1.13;;;14.20;99.90;;;;;;5031974;28;20257;-88
2022/04/24 09:57:27;;;;;;;5.70;1.20;;;14.30;99.90;;;;;;5031470;28;20280;-87
2022/04/24 09:59:53;;;;;;;2.83;1.93;;;13.90;99.90;;;;;;5033272;28;20216;-87
2022/04/24 10:02:20;;;;;;;3.40;1.33;;;14.40;99.90;;;;;;5032967;28;20737;-87
2022/04/24 10:04:47;;;;;;;1.00;0.67;;;14.30;99.90;;;;;;5030967;28;20823;-89
2022/04/24 10:07:19;;;;;;;2.07;0.97;;;14.30;99.90;;;;;;5031809;28;20226;-83
2022/04/24 10:09:47;;;;;;;3.73;1.60;;;14.00;99.90;;;;;;5032104;28;20683;-85
2022/04/24 10:12:21;;;;;;;4.40;1.50;;;14.30;99.90;;;;;;5031378;28;20318;-83
2022/04/24 10:15:03;;;;;;;0.97;0.97;;;14.40;99.90;;;;;;5031141;28;20174;-84
2022/04/24 10:17:38;;;;;;;4.50;1.37;;;14.00;99.90;;;;;;5038230;28;20202;-84
2022/04/24 10:20:32;;;;;;;1.77;1.37;;;14.50;99.90;;;;;;5026628;28;20224;-87
2022/04/24 10:22:59;;;;;;;1.53;1.27;;;14.30;99.90;;;;;;5030729;28;20244;-83
2022/04/24 10:25:37;;;;;;;1.10;1.00;;;13.90;99.90;;;;;;5028648;28;20234;-84
2022/04/24 10:28:11;;;;;;;1.00;0.73;;;14.30;99.90;;;;;;5032967;28;20214;-84
2022/04/24 10:30:37;;;;;;;2.50;1.57;;;14.50;99.90;;;;;;5036515;28;20647;-82
2022/04/24 10:33:18;;;;;;;2.93;1.43;;;13.90;99.90;;;;;;5035761;28;20201;-83
2022/04/24 10:35:57;;;;;;;1.50;1.30;;;13.70;99.90;;;;;;5035359;28;20179;-83
2022/04/24 10:38:24;;;;;;;2.17;1.40;;;14.40;99.90;;;;;;5037425;28;20340;-84
2022/04/24 10:41:01;;;;;;;2.53;1.23;;;14.20;99.90;;;;;;5043602;28;20225;-85
2022/04/24 10:43:48;;;;;;;1.73;1.63;;;14.50;99.90;;;;;;5036625;28;20214;-84
2022/04/24 10:46:18;;;;;;;2.97;1.60;;;14.90;99.90;;;;;;5034251;28;20329;-86
2022/04/24 10:48:46;;;;;;;3.33;1.30;;;15.30;99.90;;;;;;5052276;28;20219;-86
2022/04/24 10:51:12;;;;;;;2.83;1.80;;;15.10;99.90;;;;;;5034441;28;20245;-85
2022/04/24 10:54:01;;;;;;;1.63;1.53;;;14.60;99.90;;;;;;5034792;28;20221;-86
2022/04/24 10:56:32;;;;;;;3.83;2.27;;;14.50;99.90;;;;;;5052729;28;20214;-83
2022/04/24 10:59:12;;;;;;;6.10;1.83;;;13.90;99.90;;;;;;5036866;28;20690;-85
2022/04/24 11:01:41;;;;;;;4.43;2.10;;;14.00;99.90;;;;;;5054208;28;20675;-85
2022/04/24 11:04:08;;;;;;;4.00;1.70;;;13.80;99.90;;;;;;5050680;28;20272;-83
2022/04/24 11:06:34;;;;;;;2.60;2.10;;;14.40;99.90;;;;;;5035822;28;20222;-85
2022/04/24 11:09:11;;;;;;;5.80;1.80;;;14.30;99.90;;;;;;5035168;28;20196;-85
2022/04/24 11:11:52;;;;;;;5.50;1.50;;;14.00;99.90;;;;;;5036808;28;20264;-85
2022/04/24 11:14:23;;;;;;;1.93;1.73;;;14.30;99.90;;;;;;5035617;28;20681;-82
2022/04/24 11:16:53;;;;;;;1.97;1.50;;;14.30;99.90;;;;;;5036427;28;20234;-85
2022/04/24 11:19:27;;;;;;;5.57;2.50;;;14.00;99.90;;;;;;5052516;28;20252;-83
2022/04/24 11:22:03;;;;;;;3.90;0.90;;;13.80;99.90;;;;;;5036040;28;20257;-83
2022/04/24 11:24:34;;;;;;;2.67;1.60;;;14.10;99.90;;;;;;5035907;28;20205;-83
2022/04/24 11:27:11;;;;;;;4.60;1.70;;;13.80;99.90;;;;;;5026899;28;20206;-84
2022/04/24 11:29:37;;;;;;;6.60;2.87;;;14.10;99.90;;;;;;5033912;28;20179;-83
2022/04/24 11:32:09;;;;;;;2.80;1.87;;;13.40;99.90;;;;;;5050154;28;20227;-84
2022/04/24 11:34:36;;;;;;;2.63;1.70;;;13.20;99.90;;;;;;5038333;28;20210;-83
2022/04/24 11:37:04;;;;;;;2.80;1.90;;;13.30;99.90;;;;;;5051713;28;20219;-86
2022/04/24 11:39:31;;;;;;;2.40;2.20;;;13.10;99.90;;;;;;5034587;28;20754;-83
2022/04/24 11:41:58;;;;;;;4.17;2.00;;;13.10;99.90;;;;;;5037097;28;20197;-84
2022/04/24 11:50:15;;;;;;;8.80;1.80;;;13.40;99.90;;;;;;5033232;28;20235;-86
2022/04/24 11:52:49;;;;;;;5.50;1.73;;;13.30;99.90;;;;;;5033074;28;20237;-86
2022/04/24 11:55:23;;;;;;;2.53;2.10;;;13.20;99.90;;;;;;5032039;28;20222;-83
2022/04/24 11:57:59;;;;;;;1.53;1.43;;;13.20;99.90;;;;;;5050909;28;20302;-84
2022/04/24 12:00:37;;;;;;;2.43;1.53;;;13.00;99.90;;;;;;5033491;28;20363;-86
2022/04/24 12:03:05;;;;;;;2.37;2.17;;;12.90;99.90;;;;;;5035063;28;20182;-84
2022/04/24 12:05:32;;;;;;;5.70;3.43;;;12.30;99.90;;;;;;5033617;28;20230;-87
2022/04/24 12:07:58;;;;;;;4.20;2.60;;;12.90;99.90;;;;;;5032662;28;20214;-83
2022/04/24 12:10:25;;;;;;;2.23;1.53;;;12.90;99.90;;;;;;5030119;28;20244;-83
2022/04/24 12:12:53;;;;;;;1.73;1.53;;;12.70;99.90;;;;;;5034514;28;20325;-84
2022/04/24 12:15:24;;;;;;;2.37;1.67;;;12.50;99.90;;;;;;5035526;28;20254;-85
2022/04/24 12:17:54;;;;;;;2.73;1.77;;;12.90;99.90;;;;;;5030978;28;20179;-85
2022/04/24 12:20:21;;;;;;;2.50;2.10;;;13.10;99.90;;;;;;5035320;28;20269;-87
2022/04/24 12:22:47;;;;;;;1.33;1.23;;;13.70;99.90;;;;;;5039988;28;20227;-85
2022/04/24 12:25:15;;;;;;;2.17;1.40;;;13.10;99.90;;;;;;5031018;28;20237;-85
2022/04/24 12:27:52;;;;;;;1.87;1.63;;;13.00;99.90;;;;;;5034539;28;20594;-87
2022/04/24 12:30:18;;;;;;;1.97;1.70;;;12.70;99.90;;;;;;5032998;28;20229;-85
2022/04/24 12:32:44;;;;;;;3.90;2.00;;;12.90;99.90;;;;;;5049068;28;20559;-86
2022/04/24 12:35:25;;;;;;;2.03;1.83;;;13.10;99.90;;;;;;5031676;28;20231;-83
2022/04/24 12:37:51;;;;;;;1.23;1.03;;;12.60;99.90;;;;;;5049946;28;20230;-81
2022/04/24 12:40:17;;;;;;;1.90;1.47;;;12.40;99.90;;;;;;5017873;28;20224;-86
2022/04/24 12:42:51;;;;;;;1.67;1.57;;;13.00;99.90;;;;;;5050038;28;20306;-84
2022/04/24 12:45:17;;;;;;;1.43;1.13;;;13.10;99.90;;;;;;5031463;28;20360;-85
2022/04/24 12:47:43;;;;;;;2.80;1.57;;;12.70;99.90;;;;;;5024826;28;20623;-85
2022/04/24 12:50:09;;;;;;;1.57;1.43;;;12.90;99.90;;;;;;5030783;28;20230;-85
2022/04/24 12:52:35;;;;;;;3.43;2.00;;;12.60;99.90;;;;;;5032063;28;20214;-83
2022/04/24 12:55:01;;;;;;;2.17;1.67;;;13.10;99.90;;;;;;5030826;28;20229;-84
2022/04/24 12:57:27;;;;;;;2.17;1.77;;;12.80;99.90;;;;;;5032206;28;20304;-83
2022/04/24 12:59:52;;;;;;;1.57;1.23;;;12.70;99.90;;;;;;5039811;28;20546;-83